createdAt,value
2018-06-24T00:02:16.974Z,59.96
2018-06-24T00:04:46.009Z,60.04
2018-06-24T00:07:15.125Z,61.87
2018-06-24T00:09:44.363Z,60.94
2018-06-24T00:12:13.716Z,60.76
2018-06-24T00:14:42.572Z,61.20
2018-06-24T00:17:11.412Z,61.48
2018-06-24T00:19:40.514Z,61.24
2018-06-24T00:22:09.494Z,60.93
2018-06-24T00:24:40.226Z,60.64
2018-06-24T00:27:10.975Z,60.12
2018-06-24T00:29:39.861Z,59.74
2018-06-24T00:32:08.539Z,60.96
2018-06-24T00:34:37.161Z,61.15
2018-06-24T00:37:05.994Z,60.75
2018-06-24T00:39:34.672Z,61.61
2018-06-24T00:42:03.609Z,61.08
2018-06-24T00:44:33.053Z,61.52
2018-06-24T00:47:02.313Z,61.35
2018-06-24T00:49:31.037Z,61.51
2018-06-24T00:51:59.680Z,61.35
2018-06-24T00:54:28.392Z,61.45
2018-06-24T00:56:59.301Z,61.38
2018-06-24T00:59:39.379Z,61.55
2018-06-24T01:02:09.024Z,60.79
2018-06-24T01:04:37.762Z,60.73
2018-06-24T01:07:06.538Z,61.17
2018-06-24T01:09:35.441Z,62.29
2018-06-24T01:12:04.120Z,63.09
2018-06-24T01:14:33.432Z,62.35
2018-06-24T01:17:02.113Z,62.33
2018-06-24T01:19:30.992Z,62.69
2018-06-24T01:21:59.664Z,63.27
2018-06-24T01:24:28.358Z,62.72
2018-06-24T01:26:57.195Z,63.18
2018-06-24T01:29:25.840Z,62.55
2018-06-24T01:31:54.533Z,63.51
2018-06-24T01:34:23.129Z,63.04
2018-06-24T01:36:51.847Z,62.73
2018-06-24T01:39:21.676Z,62.11
2018-06-24T01:41:50.668Z,63.23
2018-06-24T01:44:19.682Z,63.18
2018-06-24T01:46:48.387Z,62.28
2018-06-24T01:49:17.023Z,62.70
2018-06-24T01:51:45.761Z,62.46
2018-06-24T01:54:14.398Z,63.19
2018-06-24T01:56:43.333Z,64.03
2018-06-24T01:59:12.035Z,63.27
2018-06-24T02:01:40.807Z,63.50
2018-06-24T02:04:10.149Z,63.01
2018-06-24T02:06:38.796Z,64.07
2018-06-24T02:09:10.901Z,64.22
2018-06-24T02:11:40.079Z,63.50
2018-06-24T02:14:08.857Z,63.24
2018-06-24T02:16:38.156Z,63.90
2018-06-24T02:19:07.714Z,65.05
2018-06-24T02:21:37.391Z,65.00
2018-06-24T02:24:06.093Z,65.65
2018-06-24T02:26:35.734Z,64.40
2018-06-24T02:29:04.425Z,64.89
2018-06-24T02:31:33.077Z,65.07
2018-06-24T02:34:02.285Z,65.00
2018-06-24T02:36:30.931Z,64.50
2018-06-24T02:38:59.662Z,64.32
2018-06-24T02:41:29.435Z,64.32
2018-06-24T02:43:58.325Z,64.67
2018-06-24T02:46:27.295Z,64.82
2018-06-24T02:48:56.356Z,64.83
2018-06-24T02:51:27.059Z,65.06
2018-06-24T02:53:57.064Z,64.42
2018-06-24T02:56:25.673Z,64.48
2018-06-24T02:58:55.397Z,66.07
2018-06-24T03:01:24.204Z,65.45
2018-06-24T03:03:52.849Z,65.75
2018-06-24T03:06:21.512Z,65.37
2018-06-24T03:08:50.299Z,66.07
2018-06-24T03:11:18.959Z,65.56
2018-06-24T03:13:47.967Z,65.94
2018-06-24T03:16:17.343Z,65.43
2018-06-24T03:18:46.268Z,65.06
2018-06-24T03:21:14.928Z,65.98
2018-06-24T03:23:43.822Z,65.36
2018-06-24T03:26:12.665Z,65.84
2018-06-24T03:28:41.295Z,66.12
2018-06-24T03:31:09.952Z,65.37
2018-06-24T03:33:38.643Z,65.61
2018-06-24T03:36:07.302Z,65.48
2018-06-24T03:38:35.911Z,66.27
2018-06-24T03:41:04.784Z,66.93
2018-06-24T03:43:33.386Z,66.71
2018-06-24T03:46:03.176Z,67.87
2018-06-24T03:48:31.799Z,66.74
2018-06-24T03:51:00.556Z,66.10
2018-06-24T03:53:29.172Z,65.41
2018-06-24T03:55:57.988Z,65.50
2018-06-24T03:58:27.977Z,66.08
2018-06-24T04:00:56.594Z,65.94
2018-06-24T04:03:25.455Z,66.78
2018-06-24T04:05:54.274Z,67.27
2018-06-24T04:08:22.960Z,67.51
2018-06-24T04:10:52.194Z,67.60
2018-06-24T04:13:21.384Z,66.98
2018-06-24T04:15:50.312Z,67.73
2018-06-24T04:18:19.010Z,67.63
2018-06-24T04:20:48.670Z,67.60
2018-06-24T04:23:21.210Z,67.48
2018-06-24T04:25:49.916Z,68.08
2018-06-24T04:28:18.577Z,66.94
2018-06-24T04:30:47.605Z,65.84
2018-06-24T04:33:17.324Z,67.03
2018-06-24T04:35:46.056Z,67.03
2018-06-24T04:38:14.780Z,66.36
2018-06-24T04:40:43.877Z,65.24
2018-06-24T04:43:13.556Z,65.39
2018-06-24T04:45:42.403Z,65.32
2018-06-24T04:48:11.190Z,66.71
2018-06-24T04:50:40.216Z,66.08
2018-06-24T04:53:09.462Z,64.56
2018-06-24T04:55:38.253Z,63.63
2018-06-24T04:58:07.738Z,62.91
2018-06-24T05:00:37.258Z,62.13
2018-06-24T05:03:06.458Z,62.42
2018-06-24T05:05:35.217Z,62.70
2018-06-24T05:08:04.450Z,62.24
2018-06-24T05:10:33.580Z,61.57
2018-06-24T05:13:03.228Z,60.65
2018-06-24T05:15:33.308Z,61.14
2018-06-24T05:18:03.147Z,59.93
2018-06-24T05:20:31.975Z,61.08
2018-06-24T05:23:00.760Z,61.59
2018-06-24T05:25:30.504Z,60.79
2018-06-24T05:28:00.454Z,59.23
2018-06-24T05:30:30.414Z,58.96
2018-06-24T05:33:04.310Z,58.92
2018-06-24T05:35:33.414Z,59.04
2018-06-24T05:38:02.350Z,57.81
2018-06-24T05:40:31.304Z,57.57
2018-06-24T05:43:01.091Z,57.16
2018-06-24T05:45:30.108Z,56.29
2018-06-24T05:47:59.356Z,54.67
2018-06-24T05:50:28.375Z,55.95
2018-06-24T05:52:58.325Z,56.51
2018-06-24T05:55:27.755Z,55.80
2018-06-24T05:57:56.803Z,53.11
2018-06-24T06:00:26.534Z,55.36
2018-06-24T06:02:55.564Z,55.41
2018-06-24T06:05:24.774Z,57.57
2018-06-24T06:07:54.832Z,56.19
2018-06-24T06:10:23.945Z,55.66
2018-06-24T06:12:52.881Z,55.97
2018-06-24T06:15:26.145Z,53.45
2018-06-24T06:17:55.529Z,53.11
2018-06-24T06:20:24.581Z,53.26
2018-06-24T06:22:54.815Z,53.80
2018-06-24T06:25:23.732Z,55.33
2018-06-24T06:27:53.074Z,55.57
2018-06-24T06:30:21.921Z,54.83
2018-06-24T06:32:50.732Z,56.41
2018-06-24T06:35:19.664Z,55.28
2018-06-24T06:37:49.081Z,56.59
2018-06-24T06:40:18.586Z,57.34
2018-06-24T06:42:49.904Z,56.23
2018-06-24T06:45:19.166Z,56.85
2018-06-24T06:47:47.820Z,57.04
2018-06-24T06:50:17.047Z,55.42
2018-06-24T06:52:46.338Z,55.65
2018-06-24T06:55:15.325Z,56.47
2018-06-24T06:57:45.322Z,56.24
2018-06-24T07:00:15.073Z,56.75
2018-06-24T07:02:44.085Z,56.61
2018-06-24T07:05:14.794Z,56.35
2018-06-24T07:07:44.284Z,55.65
2018-06-24T07:10:13.663Z,55.70
2018-06-24T07:12:43.674Z,57.08
2018-06-24T07:15:12.557Z,57.24
2018-06-24T07:17:43.315Z,57.00
2018-06-24T07:20:12.320Z,56.79
2018-06-24T07:22:41.885Z,56.04
2018-06-24T07:25:12.117Z,56.99
2018-06-24T07:27:51.496Z,56.71
2018-06-24T07:30:20.936Z,56.58
2018-06-24T07:32:50.016Z,57.03
2018-06-24T07:35:18.953Z,55.79
2018-06-24T07:37:52.913Z,57.21
2018-06-24T07:40:24.710Z,57.45
2018-06-24T07:43:00.764Z,56.57
2018-06-24T07:45:30.615Z,57.12
2018-06-24T07:48:03.778Z,56.37
2018-06-24T07:50:33.708Z,55.98
2018-06-24T07:53:02.360Z,56.93
2018-06-24T07:55:31.008Z,57.56
2018-06-24T07:57:59.970Z,56.14
2018-06-24T08:00:28.846Z,56.86
2018-06-24T08:02:57.587Z,55.78
2018-06-24T08:05:26.200Z,56.00
2018-06-24T08:07:54.852Z,55.82
2018-06-24T08:10:23.429Z,54.90
2018-06-24T08:12:52.097Z,55.58
2018-06-24T08:15:20.695Z,54.21
2018-06-24T08:17:49.507Z,54.69
2018-06-24T08:20:18.452Z,53.32
2018-06-24T08:22:47.187Z,53.37
2018-06-24T08:25:16.854Z,52.49
2018-06-24T08:27:45.491Z,52.85
2018-06-24T08:30:14.155Z,52.53
2018-06-24T08:32:42.775Z,51.45
2018-06-24T08:35:11.429Z,51.32
2018-06-24T08:37:44.740Z,52.29
2018-06-24T08:40:14.883Z,51.31
2018-06-24T08:42:43.806Z,52.26
2018-06-24T08:45:15.425Z,52.20
2018-06-24T08:47:45.469Z,50.94
2018-06-24T08:50:14.077Z,52.33
2018-06-24T08:52:42.741Z,50.64
2018-06-24T08:55:11.567Z,50.61
2018-06-24T08:57:40.787Z,49.70
2018-06-24T09:00:10.630Z,49.31
2018-06-24T09:02:39.401Z,49.35
2018-06-24T09:05:08.913Z,49.68
2018-06-24T09:07:37.533Z,49.98
2018-06-24T09:10:06.198Z,50.25
2018-06-24T09:12:34.944Z,48.81
2018-06-24T09:15:03.820Z,49.57
2018-06-24T09:17:32.582Z,49.25
2018-06-24T09:20:06.165Z,49.03
2018-06-24T09:22:36.551Z,49.18
2018-06-24T09:25:06.060Z,49.99
2018-06-24T09:27:34.815Z,50.29
2018-06-24T09:30:05.927Z,50.17
2018-06-24T09:32:35.175Z,47.29
2018-06-24T09:35:03.923Z,47.27
2018-06-24T09:37:32.800Z,49.79
2018-06-24T09:40:01.639Z,46.25
2018-06-24T09:42:30.474Z,46.78
2018-06-24T09:45:07.497Z,46.09
2018-06-24T09:47:37.579Z,47.57
2018-06-24T09:50:06.852Z,47.17
2018-06-24T09:52:35.545Z,47.87
2018-06-24T09:55:04.300Z,46.98
2018-06-24T09:57:34.981Z,48.31
2018-06-24T10:00:03.692Z,48.21
2018-06-24T10:02:32.368Z,45.47
2018-06-24T10:05:01.345Z,45.22
2018-06-24T10:07:29.937Z,45.95
2018-06-24T10:09:58.585Z,47.66
2018-06-24T10:12:27.202Z,46.03
2018-06-24T10:14:56.323Z,47.38
2018-06-24T10:17:25.217Z,47.12
2018-06-24T10:19:53.841Z,44.99
2018-06-24T10:22:22.588Z,45.76
2018-06-24T10:24:51.234Z,44.85
2018-06-24T10:27:19.854Z,46.19
2018-06-24T10:29:48.498Z,44.08
2018-06-24T10:32:17.090Z,46.83
2018-06-24T10:34:45.746Z,45.00
2018-06-24T10:37:30.911Z,44.69
2018-06-24T10:40:00.248Z,44.77
2018-06-24T10:42:28.860Z,44.74
2018-06-24T10:44:57.503Z,44.70
2018-06-24T10:47:26.132Z,46.25
2018-06-24T10:49:54.780Z,46.14
2018-06-24T10:52:24.383Z,46.72
2018-06-24T10:54:57.224Z,46.23
2018-06-24T10:57:25.826Z,48.04
2018-06-24T10:59:55.509Z,47.91
2018-06-24T11:02:24.115Z,48.15
2018-06-24T11:04:52.825Z,47.54
2018-06-24T11:07:21.464Z,46.14
2018-06-24T11:09:50.183Z,46.56
2018-06-24T11:12:18.841Z,45.80
2018-06-24T11:14:47.484Z,45.49
2018-06-24T11:17:18.215Z,46.84
2018-06-24T11:19:46.938Z,47.02
2018-06-24T11:22:15.616Z,48.08
2018-06-24T11:24:44.621Z,47.88
2018-06-24T11:27:13.235Z,49.34
2018-06-24T11:29:41.877Z,47.46
2018-06-24T11:32:10.544Z,46.81
2018-06-24T11:34:39.172Z,44.01
2018-06-24T11:37:11.756Z,43.37
2018-06-24T11:39:40.420Z,44.24
2018-06-24T11:42:09.105Z,44.57
2018-06-24T11:44:38.771Z,45.08
2018-06-24T11:47:07.951Z,44.06
2018-06-24T11:49:36.597Z,45.37
2018-06-24T11:52:05.422Z,43.80
2018-06-24T11:54:34.247Z,44.64
2018-06-24T11:57:04.024Z,43.14
2018-06-24T11:59:32.645Z,43.65
2018-06-24T12:02:01.317Z,43.41
2018-06-24T12:04:32.216Z,44.13
2018-06-24T12:07:01.012Z,43.82
2018-06-24T12:09:29.770Z,44.83
2018-06-24T12:12:00.654Z,44.04
2018-06-24T12:14:30.143Z,42.75
2018-06-24T12:16:59.287Z,44.02
2018-06-24T12:19:33.428Z,43.00
2018-06-24T12:22:02.289Z,42.29
2018-06-24T12:24:31.030Z,41.43
2018-06-24T12:27:01.139Z,41.72
2018-06-24T12:29:30.033Z,42.24
2018-06-24T12:31:58.912Z,43.58
2018-06-24T12:34:27.781Z,43.31
2018-06-24T12:36:56.905Z,43.29
2018-06-24T12:39:30.606Z,44.27
2018-06-24T12:42:00.376Z,43.67
2018-06-24T12:44:29.249Z,42.02
2018-06-24T12:46:58.955Z,41.92
2018-06-24T12:49:27.676Z,42.95
2018-06-24T12:51:56.625Z,44.51
2018-06-24T12:54:26.208Z,41.60
2018-06-24T12:56:55.164Z,40.86
2018-06-24T12:59:25.382Z,40.89
2018-06-24T13:01:55.144Z,41.44
2018-06-24T13:04:23.929Z,40.97
2018-06-24T13:06:52.908Z,41.00
2018-06-24T13:09:21.673Z,42.40
2018-06-24T13:11:50.701Z,41.51
2018-06-24T13:14:19.315Z,41.15
2018-06-24T13:16:48.719Z,41.63
2018-06-24T13:19:17.666Z,42.27
2018-06-24T13:21:47.350Z,42.49
2018-06-24T13:24:20.301Z,43.60
2018-06-24T13:26:49.264Z,43.42
2018-06-24T13:29:17.948Z,43.12
2018-06-24T13:31:46.658Z,42.00
2018-06-24T13:34:15.675Z,41.10
2018-06-24T13:36:45.420Z,42.16
2018-06-24T13:39:14.590Z,42.41
2018-06-24T13:41:43.317Z,43.71
2018-06-24T13:44:13.094Z,43.38
2018-06-24T13:46:41.757Z,44.01
2018-06-24T13:49:10.452Z,44.61
2018-06-24T13:51:39.217Z,44.36
2018-06-24T13:54:08.064Z,45.54
2018-06-24T13:56:36.697Z,46.19
2018-06-24T13:59:06.500Z,46.73
2018-06-24T14:01:35.092Z,46.48
2018-06-24T14:04:03.873Z,46.88
2018-06-24T14:06:32.515Z,46.15
2018-06-24T14:09:01.176Z,46.70
2018-06-24T14:11:29.840Z,46.01
2018-06-24T14:13:58.570Z,46.19
2018-06-24T14:16:27.183Z,46.75
2018-06-24T14:18:55.829Z,47.66
2018-06-24T14:21:25.071Z,47.21
2018-06-24T14:23:53.823Z,46.91
2018-06-24T14:26:22.535Z,47.79
2018-06-24T14:28:51.378Z,49.23
2018-06-24T14:31:20.079Z,50.38
2018-06-24T14:33:49.004Z,48.29
2018-06-24T14:36:17.853Z,48.73
2018-06-24T14:38:46.650Z,48.48
2018-06-24T14:41:15.400Z,48.18
2018-06-24T14:43:44.413Z,47.74
2018-06-24T14:46:15.670Z,49.37
2018-06-24T14:48:44.623Z,48.93
2018-06-24T14:51:13.331Z,49.41
2018-06-24T14:53:42.272Z,50.97
2018-06-24T14:56:11.124Z,51.25
2018-06-24T14:58:40.743Z,49.91
2018-06-24T15:01:11.609Z,49.53
2018-06-24T15:03:40.421Z,49.78
2018-06-24T15:06:09.824Z,49.56
2018-06-24T15:08:39.112Z,49.09
2018-06-24T15:11:12.418Z,48.93
2018-06-24T15:13:47.316Z,48.32
2018-06-24T15:16:16.056Z,47.76
2018-06-24T15:18:45.340Z,47.31
2018-06-24T15:21:15.384Z,47.49
2018-06-24T15:23:48.760Z,48.96
2018-06-24T15:26:17.640Z,49.61
2018-06-24T15:28:51.720Z,49.13
2018-06-24T15:31:20.531Z,49.81
2018-06-24T15:33:51.433Z,50.33
2018-06-24T15:36:27.608Z,50.38
2018-06-24T15:38:56.305Z,51.87
2018-06-24T15:41:24.980Z,50.96
2018-06-24T15:43:53.627Z,51.33
2018-06-24T15:46:22.594Z,50.01
2018-06-24T15:48:52.672Z,51.02
2018-06-24T15:51:21.568Z,51.38
2018-06-24T15:53:53.377Z,50.15
2018-06-24T15:56:22.239Z,50.80
2018-06-24T15:58:51.436Z,50.56
2018-06-24T16:01:20.196Z,49.74
2018-06-24T16:03:48.894Z,51.27
2018-06-24T16:06:17.647Z,51.22
2018-06-24T16:08:46.360Z,52.52
2018-06-24T16:11:15.240Z,51.49
2018-06-24T16:13:43.893Z,52.19
2018-06-24T16:16:12.528Z,51.43
2018-06-24T16:18:41.273Z,51.77
2018-06-24T16:21:10.269Z,51.26
2018-06-24T16:23:38.885Z,51.40
2018-06-24T16:26:09.688Z,51.40
2018-06-24T16:28:44.896Z,51.84
2018-06-24T16:31:13.791Z,52.38
2018-06-24T16:33:50.142Z,52.06
